Time;durP1;ratioP1;P1;durP2;ratioP2;P2;SDS_P1;SDS_P2;PMS_P1;PMS_P2;Temp;Humidity;BMP_temperature;BMP_pressure;BME280_temperature;BME280_humidity;BME280_pressure;Samples;Min_cycle;Max_cycle;Signal;HPM_P1;HPM_P2
2023/03/26 00:02:17;;;;;;;11.02;3.35;;;;;;;;;;5065738;28;20510;-79
2023/03/26 00:04:45;;;;;;;10.77;3.83;;;;;;;;;;5066530;28;20934;-79
2023/03/26 00:07:11;;;;;;;7.40;3.17;;;;;;;;;;5064304;28;20432;-79
2023/03/26 00:09:38;;;;;;;10.80;3.30;;;;;;;;;;5062240;28;20475;-79
2023/03/26 00:12:06;;;;;;;9.25;3.22;;;;;;;;;;5064793;28;20454;-79
2023/03/26 00:14:34;;;;;;;11.38;3.30;;;;;;;;;;5064986;28;20427;-79
2023/03/26 00:17:01;;;;;;;11.93;3.10;;;;;;;;;;5064781;28;20423;-79
2023/03/26 00:19:29;;;;;;;9.93;3.67;;;;;;;;;;5063022;28;20423;-79
2023/03/26 00:21:56;;;;;;;10.73;3.08;;;;;;;;;;5064000;28;20432;-79
2023/03/26 00:24:28;;;;;;;13.25;3.47;;;;;;;;;;5058361;28;20424;-79
2023/03/26 00:26:55;;;;;;;13.73;3.42;;;;;;;;;;5064526;28;20424;-79
2023/03/26 00:29:23;;;;;;;7.68;3.20;;;;;;;;;;5063271;28;20414;-79
2023/03/26 00:31:49;;;;;;;7.97;2.78;;;;;;;;;;5060459;28;20972;-79
2023/03/26 00:34:17;;;;;;;12.68;4.00;;;;;;;;;;5062195;28;20425;-79
2023/03/26 00:36:45;;;;;;;9.68;3.92;;;;;;;;;;5061782;28;20424;-79
2023/03/26 00:39:12;;;;;;;11.23;3.90;;;;;;;;;;5064451;28;20435;-79
2023/03/26 00:41:41;;;;;;;11.18;3.15;;;;;;;;;;5065332;28;20459;-79
2023/03/26 00:44:09;;;;;;;11.40;3.53;;;;;;;;;;5057047;28;20475;-79
2023/03/26 00:46:37;;;;;;;12.85;3.97;;;;;;;;;;5063632;28;20425;-79
2023/03/26 00:49:03;;;;;;;11.65;4.50;;;;;;;;;;5064920;28;20769;-79
2023/03/26 00:51:30;;;;;;;14.67;4.20;;;;;;;;;;5060154;28;20496;-79
2023/03/26 00:53:57;;;;;;;12.93;3.92;;;;;;;;;;5059930;28;20780;-79
2023/03/26 00:56:23;;;;;;;13.83;3.37;;;;;;;;;;5065446;28;20434;-79
2023/03/26 00:58:50;;;;;;;14.05;3.45;;;;;;;;;;5061048;28;20413;-79
2023/03/26 01:01:17;;;;;;;11.45;3.63;;;;;;;;;;5064858;28;20413;-79
2023/03/26 01:03:47;;;;;;;13.30;3.90;;;;;;;;;;5064740;28;20403;-79
2023/03/26 01:06:26;;;;;;;13.07;3.70;;;;;;;;;;5063093;28;20439;-79
2023/03/26 01:08:53;;;;;;;15.80;4.75;;;;;;;;;;5059916;28;20909;-79
2023/03/26 01:11:22;;;;;;;14.55;4.28;;;;;;;;;;5062559;28;20424;-79
2023/03/26 01:13:50;;;;;;;13.68;3.90;;;;;;;;;;5061018;28;20419;-79
2023/03/26 01:16:24;;;;;;;9.97;4.00;;;;;;;;;;5063994;28;20526;-79
2023/03/26 01:18:57;;;;;;;16.10;4.50;;;;;;;;;;5063064;28;20427;-79
2023/03/26 01:21:29;;;;;;;13.75;4.28;;;;;;;;;;5066622;28;20873;-79
2023/03/26 01:23:58;;;;;;;9.45;3.70;;;;;;;;;;5058996;28;20470;-79
2023/03/26 01:26:42;;;;;;;9.80;3.75;;;;;;;;;;5061944;28;20901;-79
2023/03/26 01:29:11;;;;;;;11.38;4.38;;;;;;;;;;5065233;28;20440;-79
2023/03/26 01:31:43;;;;;;;10.80;3.70;;;;;;;;;;5064784;28;20476;-79
2023/03/26 01:34:12;;;;;;;14.60;4.03;;;;;;;;;;5063223;28;20416;-79
2023/03/26 01:36:43;;;;;;;10.43;3.92;;;;;;;;;;5061764;28;20428;-79
2023/03/26 01:39:17;;;;;;;14.43;4.40;;;;;;;;;;5058832;28;20414;-79
2023/03/26 01:41:45;;;;;;;11.65;4.18;;;;;;;;;;5070084;28;20451;-79
2023/03/26 01:44:16;;;;;;;13.85;3.50;;;;;;;;;;5065915;28;20411;-79
2023/03/26 01:46:43;;;;;;;13.65;3.90;;;;;;;;;;5067262;28;20434;-79
2023/03/26 01:49:11;;;;;;;12.43;4.22;;;;;;;;;;5064157;28;20407;-79
2023/03/26 01:51:39;;;;;;;14.23;4.00;;;;;;;;;;5067465;28;20415;-79
2023/03/26 01:54:08;;;;;;;16.80;4.30;;;;;;;;;;5063300;28;20787;-79
2023/03/26 01:56:40;;;;;;;14.45;4.30;;;;;;;;;;5064222;28;20443;-79
2023/03/26 01:59:11;;;;;;;13.90;4.18;;;;;;;;;;5066573;28;20421;-79
2023/03/26 02:01:43;;;;;;;13.63;4.40;;;;;;;;;;5068358;28;20443;-79
2023/03/26 02:04:15;;;;;;;16.58;4.45;;;;;;;;;;5060407;28;20454;-79
2023/03/26 02:06:44;;;;;;;19.63;4.63;;;;;;;;;;5067578;28;20436;-79
2023/03/26 02:09:13;;;;;;;14.95;5.65;;;;;;;;;;5067078;28;20946;-79
2023/03/26 02:11:41;;;;;;;23.77;4.93;;;;;;;;;;5066085;28;20428;-79
2023/03/26 02:14:08;;;;;;;18.63;4.65;;;;;;;;;;5063956;28;20410;-79
2023/03/26 02:16:35;;;;;;;11.82;4.53;;;;;;;;;;5064863;28;20451;-79
2023/03/26 02:19:03;;;;;;;15.88;4.10;;;;;;;;;;5062908;28;20409;-79
2023/03/26 02:21:32;;;;;;;11.93;4.43;;;;;;;;;;5065674;28;20923;-79
2023/03/26 02:24:02;;;;;;;13.73;4.10;;;;;;;;;;5063750;28;20438;-79
2023/03/26 02:26:29;;;;;;;12.75;4.10;;;;;;;;;;5063803;28;20463;-79
2023/03/26 02:28:57;;;;;;;14.23;4.20;;;;;;;;;;5064293;28;20406;-79
2023/03/26 02:31:25;;;;;;;14.77;3.97;;;;;;;;;;5067721;28;20442;-79
2023/03/26 02:33:51;;;;;;;13.35;3.95;;;;;;;;;;5064393;28;20417;-79
2023/03/26 02:36:20;;;;;;;15.35;3.95;;;;;;;;;;5066559;28;20429;-79
2023/03/26 02:38:47;;;;;;;17.55;4.05;;;;;;;;;;5062432;28;20411;-79
2023/03/26 02:41:13;;;;;;;9.35;3.20;;;;;;;;;;5068846;28;20419;-79
2023/03/26 02:43:40;;;;;;;11.32;3.28;;;;;;;;;;5063500;28;20435;-79
2023/03/26 02:46:07;;;;;;;9.77;3.10;;;;;;;;;;5064993;28;20434;-79
2023/03/26 02:48:35;;;;;;;8.65;2.88;;;;;;;;;;5062680;28;20436;-79
2023/03/26 02:51:01;;;;;;;10.68;2.70;;;;;;;;;;5067730;28;20488;-79
2023/03/26 02:53:29;;;;;;;10.27;2.70;;;;;;;;;;5064773;28;20435;-79
2023/03/26 02:55:56;;;;;;;7.30;2.30;;;;;;;;;;5063609;28;20428;-79
2023/03/26 02:58:25;;;;;;;10.07;3.00;;;;;;;;;;5067237;28;20437;-79
2023/03/26 03:00:53;;;;;;;10.82;2.60;;;;;;;;;;5067768;28;20427;-79
2023/03/26 03:03:23;;;;;;;12.02;2.53;;;;;;;;;;5062143;28;20429;-79
2023/03/26 03:05:50;;;;;;;10.85;2.60;;;;;;;;;;5052144;28;20422;-79
2023/03/26 03:08:18;;;;;;;7.15;2.35;;;;;;;;;;5051779;28;20991;-79
2023/03/26 03:10:44;;;;;;;14.20;4.18;;;;;;;;;;5046389;28;20447;-80
2023/03/26 03:13:11;;;;;;;8.00;2.30;;;;;;;;;;5044286;28;20428;-78
2023/03/26 03:15:37;;;;;;;12.77;2.70;;;;;;;;;;5044945;28;20416;-79
2023/03/26 03:18:03;;;;;;;7.03;2.40;;;;;;;;;;5044782;28;20437;-79
2023/03/26 03:20:33;;;;;;;11.20;2.63;;;;;;;;;;5044656;28;20449;-79
2023/03/26 03:23:00;;;;;;;14.02;3.08;;;;;;;;;;5045687;28;20435;-79
2023/03/26 03:25:26;;;;;;;12.05;3.40;;;;;;;;;;5045588;28;20428;-79
2023/03/26 03:27:53;;;;;;;9.63;2.70;;;;;;;;;;5045204;28;20476;-79
2023/03/26 03:30:20;;;;;;;11.70;3.50;;;;;;;;;;5043406;28;20534;-79
2023/03/26 03:32:46;;;;;;;11.07;2.85;;;;;;;;;;5042679;28;20479;-79
2023/03/26 03:35:12;;;;;;;10.93;3.80;;;;;;;;;;5038824;28;20417;-79
2023/03/26 03:37:40;;;;;;;14.45;3.03;;;;;;;;;;5046066;28;20926;-79
2023/03/26 03:40:09;;;;;;;12.50;3.40;;;;;;;;;;5044162;28;20437;-79
2023/03/26 03:42:35;;;;;;;13.88;3.30;;;;;;;;;;5042895;28;20435;-79
2023/03/26 03:45:02;;;;;;;11.90;4.10;;;;;;;;;;5041607;28;20427;-79
2023/03/26 03:47:28;;;;;;;10.38;3.20;;;;;;;;;;5045505;28;20429;-79
2023/03/26 03:49:55;;;;;;;15.65;3.70;;;;;;;;;;5044192;28;20799;-79
2023/03/26 03:52:22;;;;;;;13.32;3.20;;;;;;;;;;5044080;28;20441;-79
2023/03/26 03:54:49;;;;;;;15.80;3.55;;;;;;;;;;5042978;28;20410;-79
2023/03/26 03:57:17;;;;;;;14.30;3.53;;;;;;;;;;5042265;28;20417;-79
2023/03/26 03:59:46;;;;;;;15.40;3.50;;;;;;;;;;5042944;28;20509;-79
2023/03/26 04:02:12;;;;;;;15.82;3.67;;;;;;;;;;5043596;28;20432;-79
2023/03/26 04:04:38;;;;;;;12.57;3.22;;;;;;;;;;5044059;28;20432;-79
2023/03/26 04:07:05;;;;;;;17.50;3.92;;;;;;;;;;5045673;28;20464;-79
2023/03/26 04:09:31;;;;;;;14.07;3.80;;;;;;;;;;5042101;28;21054;-79
2023/03/26 04:11:59;;;;;;;14.93;3.70;;;;;;;;;;5044391;28;20436;-79
2023/03/26 04:14:25;;;;;;;9.55;3.58;;;;;;;;;;5040656;28;20446;-79
2023/03/26 04:16:52;;;;;;;15.43;3.70;;;;;;;;;;5042846;28;20434;-79
2023/03/26 04:19:18;;;;;;;12.52;3.50;;;;;;;;;;5043326;28;20514;-79
2023/03/26 04:21:44;;;;;;;12.75;4.68;;;;;;;;;;5044368;28;20433;-79
2023/03/26 04:24:11;;;;;;;13.45;3.30;;;;;;;;;;5043130;28;20422;-79
2023/03/26 04:26:37;;;;;;;16.25;4.30;;;;;;;;;;5041240;28;20920;-80
2023/03/26 04:29:10;;;;;;;16.75;4.00;;;;;;;;;;5039567;28;20803;-79
2023/03/26 04:31:37;;;;;;;13.10;4.03;;;;;;;;;;5042909;28;20428;-79
2023/03/26 04:34:06;;;;;;;12.82;3.13;;;;;;;;;;5042141;28;20420;-79
2023/03/26 04:36:34;;;;;;;14.45;3.90;;;;;;;;;;5042001;28;20413;-79
2023/03/26 04:39:03;;;;;;;12.70;3.50;;;;;;;;;;5042599;28;20926;-79
2023/03/26 04:41:31;;;;;;;13.63;3.27;;;;;;;;;;5041377;28;20932;-79
2023/03/26 04:44:00;;;;;;;21.13;4.22;;;;;;;;;;5042848;28;20413;-79
2023/03/26 04:46:32;;;;;;;12.38;3.33;;;;;;;;;;5047085;28;20425;-79
2023/03/26 04:48:58;;;;;;;10.57;3.10;;;;;;;;;;5043529;28;20826;-79
2023/03/26 04:51:26;;;;;;;12.13;3.03;;;;;;;;;;5039894;28;20429;-79
2023/03/26 04:53:54;;;;;;;14.32;4.10;;;;;;;;;;5046633;28;20412;-79
2023/03/26 04:56:25;;;;;;;8.27;2.83;;;;;;;;;;5043507;28;20802;-79
2023/03/26 04:58:55;;;;;;;13.90;3.60;;;;;;;;;;5038865;28;20412;-79
2023/03/26 05:01:23;;;;;;;13.35;3.92;;;;;;;;;;5042582;28;20451;-79
2023/03/26 05:03:52;;;;;;;12.43;3.20;;;;;;;;;;5039875;28;20415;-79
2023/03/26 05:06:18;;;;;;;11.68;2.80;;;;;;;;;;5040138;28;20522;-79
2023/03/26 05:08:45;;;;;;;9.93;3.40;;;;;;;;;;5039622;28;20407;-79
2023/03/26 05:11:11;;;;;;;9.45;3.50;;;;;;;;;;5041087;28;20451;-79
2023/03/26 05:13:37;;;;;;;12.40;3.55;;;;;;;;;;5041979;28;20422;-79
2023/03/26 05:16:04;;;;;;;8.77;2.80;;;;;;;;;;5050864;28;20468;-79
2023/03/26 05:18:32;;;;;;;11.55;3.13;;;;;;;;;;5045555;28;20453;-79
2023/03/26 05:21:00;;;;;;;12.05;2.95;;;;;;;;;;5047086;28;20432;-79
2023/03/26 05:23:26;;;;;;;14.52;3.40;;;;;;;;;;5045677;28;20437;-79
2023/03/26 05:25:52;;;;;;;15.93;3.10;;;;;;;;;;5047192;28;20442;-79
2023/03/26 05:28:23;;;;;;;10.77;3.30;;;;;;;;;;5041791;28;20432;-79
2023/03/26 05:30:49;;;;;;;15.88;3.13;;;;;;;;;;5046481;28;20483;-79
2023/03/26 05:33:16;;;;;;;8.93;2.67;;;;;;;;;;5044905;28;20411;-79
2023/03/26 05:35:42;;;;;;;12.95;3.22;;;;;;;;;;5043793;28;20426;-79
2023/03/26 05:38:10;;;;;;;8.20;2.90;;;;;;;;;;5048074;28;20442;-79
2023/03/26 05:40:37;;;;;;;12.18;3.42;;;;;;;;;;5049213;28;20433;-79
2023/03/26 05:43:03;;;;;;;10.90;3.25;;;;;;;;;;5045720;28;20440;-79
2023/03/26 05:45:30;;;;;;;8.57;2.60;;;;;;;;;;5064045;28;20443;-79
2023/03/26 05:47:56;;;;;;;13.70;3.22;;;;;;;;;;5067496;28;20435;-79
2023/03/26 05:50:24;;;;;;;13.55;3.30;;;;;;;;;;5062774;28;20432;-79
2023/03/26 05:52:50;;;;;;;11.35;3.15;;;;;;;;;;5064313;28;20444;-79
2023/03/26 05:55:18;;;;;;;12.05;3.03;;;;;;;;;;5063294;28;20436;-79
2023/03/26 05:57:45;;;;;;;10.45;3.25;;;;;;;;;;5066656;28;20427;-79
2023/03/26 06:00:12;;;;;;;9.40;3.00;;;;;;;;;;5063711;28;20417;-79
2023/03/26 06:02:38;;;;;;;13.30;3.38;;;;;;;;;;5066511;28;20428;-79
2023/03/26 06:05:06;;;;;;;14.38;3.15;;;;;;;;;;5058643;28;20424;-79
2023/03/26 06:07:32;;;;;;;16.48;3.20;;;;;;;;;;5066386;28;20430;-79
2023/03/26 06:10:01;;;;;;;13.30;3.00;;;;;;;;;;5069073;28;20423;-79
2023/03/26 06:12:29;;;;;;;13.75;3.30;;;;;;;;;;5065842;28;20442;-79
2023/03/26 06:14:55;;;;;;;10.70;3.50;;;;;;;;;;5065607;28;20843;-79
2023/03/26 06:17:21;;;;;;;10.68;3.05;;;;;;;;;;5067662;28;20446;-79
2023/03/26 06:19:48;;;;;;;12.10;3.20;;;;;;;;;;5066199;28;20921;-79
2023/03/26 06:22:14;;;;;;;9.48;3.08;;;;;;;;;;5064647;28;20434;-79
2023/03/26 06:24:41;;;;;;;9.60;3.35;;;;;;;;;;5066507;28;20506;-79
2023/03/26 06:27:08;;;;;;;19.50;4.00;;;;;;;;;;5064184;28;20432;-79
2023/03/26 06:29:37;;;;;;;13.60;3.20;;;;;;;;;;5063478;28;20426;-79
2023/03/26 06:32:03;;;;;;;11.80;3.15;;;;;;;;;;5063931;28;20439;-79
2023/03/26 06:34:30;;;;;;;14.20;3.88;;;;;;;;;;5066096;28;20428;-79
2023/03/26 06:36:56;;;;;;;15.75;3.88;;;;;;;;;;5063970;28;20510;-79
2023/03/26 06:39:23;;;;;;;11.90;3.47;;;;;;;;;;5067392;28;20420;-79
2023/03/26 06:41:49;;;;;;;16.05;3.90;;;;;;;;;;5065716;28;20429;-79
2023/03/26 06:44:16;;;;;;;16.45;4.28;;;;;;;;;;5063921;28;20419;-79
2023/03/26 06:46:45;;;;;;;14.57;3.65;;;;;;;;;;5065259;28;20425;-79
2023/03/26 06:49:11;;;;;;;12.25;3.22;;;;;;;;;;5065683;28;20431;-80
2023/03/26 06:51:39;;;;;;;12.30;3.47;;;;;;;;;;5061346;28;20460;-80
2023/03/26 06:54:06;;;;;;;14.85;4.20;;;;;;;;;;5063184;28;20810;-79
2023/03/26 06:56:32;;;;;;;13.95;2.95;;;;;;;;;;5066010;28;20434;-79
2023/03/26 06:58:59;;;;;;;12.57;3.10;;;;;;;;;;5063409;28;20427;-79
2023/03/26 07:01:25;;;;;;;18.17;4.35;;;;;;;;;;5065111;28;20434;-79
2023/03/26 07:03:53;;;;;;;17.77;4.38;;;;;;;;;;5064128;28;20408;-79
2023/03/26 07:06:19;;;;;;;13.73;3.55;;;;;;;;;;5059996;28;20837;-79
2023/03/26 07:08:46;;;;;;;17.35;3.33;;;;;;;;;;5062757;28;20417;-80
2023/03/26 07:11:13;;;;;;;13.27;3.70;;;;;;;;;;5065718;28;20814;-79
2023/03/26 07:13:40;;;;;;;17.08;3.45;;;;;;;;;;5066159;28;20412;-79
2023/03/26 07:16:07;;;;;;;14.05;4.05;;;;;;;;;;5064889;28;20427;-80
2023/03/26 07:18:34;;;;;;;13.68;3.60;;;;;;;;;;5062751;28;20406;-79
2023/03/26 07:21:03;;;;;;;11.80;3.03;;;;;;;;;;5063205;28;20424;-80
2023/03/26 07:23:29;;;;;;;12.82;2.80;;;;;;;;;;5043734;28;20446;-79
2023/03/26 07:25:56;;;;;;;13.07;3.17;;;;;;;;;;5064182;28;20421;-79
2023/03/26 07:28:25;;;;;;;14.75;3.50;;;;;;;;;;5066142;28;20436;-79
2023/03/26 07:31:00;;;;;;;17.70;3.55;;;;;;;;;;5062021;28;20919;-79
2023/03/26 07:33:31;;;;;;;16.25;3.67;;;;;;;;;;5062790;28;20935;-79
2023/03/26 07:36:03;;;;;;;11.35;3.10;;;;;;;;;;5063267;28;20431;-79
2023/03/26 07:38:41;;;;;;;14.70;4.00;;;;;;;;;;5058305;28;20432;-79
2023/03/26 07:41:10;;;;;;;15.57;3.30;;;;;;;;;;5064424;28;20435;-79
2023/03/26 07:43:44;;;;;;;15.60;3.50;;;;;;;;;;5063899;28;20969;-79
2023/03/26 07:46:12;;;;;;;14.00;3.40;;;;;;;;;;5063431;28;20440;-79
2023/03/26 07:48:40;;;;;;;16.83;4.10;;;;;;;;;;5062775;28;20421;-79
2023/03/26 07:51:08;;;;;;;13.30;3.10;;;;;;;;;;5064048;28;20435;-79
2023/03/26 07:53:38;;;;;;;17.63;3.50;;;;;;;;;;5064765;28;20729;-79
2023/03/26 07:56:07;;;;;;;12.02;3.38;;;;;;;;;;5064624;28;20433;-79
2023/03/26 07:58:43;;;;;;;13.35;3.50;;;;;;;;;;5063022;28;20426;-79
2023/03/26 08:01:13;;;;;;;16.33;4.23;;;;;;;;;;5065685;28;20429;-79
2023/03/26 08:03:48;;;;;;;17.10;3.90;;;;;;;;;;5060281;28;20408;-79
2023/03/26 08:06:16;;;;;;;13.10;3.72;;;;;;;;;;5065695;28;20450;-80
2023/03/26 08:08:48;;;;;;;14.90;3.20;;;;;;;;;;5062816;28;20423;-79
2023/03/26 08:11:22;;;;;;;13.85;3.30;;;;;;;;;;5062642;28;20452;-79
2023/03/26 08:13:55;;;;;;;17.27;4.00;;;;;;;;;;5064542;28;20422;-79
2023/03/26 08:16:25;;;;;;;15.13;3.73;;;;;;;;;;5062880;28;20483;-79
2023/03/26 08:18:55;;;;;;;15.95;3.90;;;;;;;;;;5061984;28;20420;-80
2023/03/26 08:21:25;;;;;;;13.15;3.85;;;;;;;;;;5062628;28;20431;-79
2023/03/26 08:24:00;;;;;;;13.50;3.92;;;;;;;;;;5060492;28;20473;-79
2023/03/26 08:26:31;;;;;;;16.00;3.88;;;;;;;;;;5062516;28;20943;-79
2023/03/26 08:29:01;;;;;;;13.85;3.75;;;;;;;;;;5062487;28;20466;-79
2023/03/26 08:31:31;;;;;;;16.52;3.80;;;;;;;;;;5062258;28;20432;-78
2023/03/26 08:33:58;;;;;;;17.05;4.05;;;;;;;;;;5063598;28;20475;-78
2023/03/26 08:36:24;;;;;;;12.40;3.50;;;;;;;;;;5063628;28;20423;-78
2023/03/26 08:38:51;;;;;;;12.13;3.70;;;;;;;;;;5063866;28;20467;-78
2023/03/26 08:41:38;;;;;;;15.13;3.90;;;;;;;;;;5059683;28;20423;-78
2023/03/26 08:44:30;;;;;;;13.95;3.75;;;;;;;;;;5058630;28;20413;-79
2023/03/26 08:47:20;;;;;;;12.73;2.90;;;;;;;;;;5064633;28;20597;-78
2023/03/26 08:49:59;;;;;;;16.65;3.20;;;;;;;;;;5043371;28;20500;-79
2023/03/26 08:52:46;;;;;;;14.77;3.75;;;;;;;;;;5063410;28;20429;-78
2023/03/26 08:55:20;;;;;;;11.32;3.50;;;;;;;;;;5038370;28;20942;-79
2023/03/26 08:57:55;;;;;;;14.63;3.63;;;;;;;;;;5060607;28;20507;-79
2023/03/26 09:00:37;;;;;;;14.40;3.80;;;;;;;;;;5057583;28;20429;-79
2023/03/26 09:03:13;;;;;;;12.88;3.95;;;;;;;;;;5061782;28;20431;-78
2023/03/26 09:05:46;;;;;;;16.85;3.42;;;;;;;;;;5058950;28;20421;-79
2023/03/26 09:08:27;;;;;;;15.00;3.57;;;;;;;;;;5060054;28;20433;-79
2023/03/26 09:11:05;;;;;;;14.98;3.80;;;;;;;;;;5062877;28;20425;-79
2023/03/26 09:13:44;;;;;;;13.48;3.90;;;;;;;;;;5061089;28;20448;-79
2023/03/26 09:16:22;;;;;;;14.85;3.78;;;;;;;;;;5064740;28;20431;-79
2023/03/26 09:19:06;;;;;;;17.40;3.60;;;;;;;;;;5062011;28;20424;-79
2023/03/26 09:21:51;;;;;;;13.40;3.70;;;;;;;;;;5052532;28;20420;-79
2023/03/26 09:24:30;;;;;;;12.93;4.10;;;;;;;;;;5064332;28;20430;-79
2023/03/26 09:27:00;;;;;;;13.68;3.50;;;;;;;;;;5061440;28;20429;-79
2023/03/26 09:29:46;;;;;;;13.65;3.50;;;;;;;;;;5058655;28;20436;-79
2023/03/26 09:32:39;;;;;;;15.55;3.60;;;;;;;;;;5063886;28;20411;-79
2023/03/26 09:35:14;;;;;;;12.07;3.90;;;;;;;;;;5062657;28;20421;-79
2023/03/26 09:37:47;;;;;;;14.00;3.88;;;;;;;;;;5062485;28;20516;-79
2023/03/26 09:40:16;;;;;;;16.60;3.78;;;;;;;;;;5063066;28;20454;-78
2023/03/26 09:42:44;;;;;;;14.32;3.80;;;;;;;;;;5061184;28;20449;-78
2023/03/26 09:45:28;;;;;;;14.90;4.40;;;;;;;;;;5062788;28;20473;-80
2023/03/26 09:48:06;;;;;;;13.80;3.85;;;;;;;;;;5060185;28;20417;-78
2023/03/26 09:50:41;;;;;;;18.05;3.95;;;;;;;;;;5054898;28;20420;-81
2023/03/26 09:53:28;;;;;;;14.50;4.20;;;;;;;;;;5061678;28;20903;-78
2023/03/26 09:56:00;;;;;;;16.92;4.40;;;;;;;;;;5039834;28;20433;-81
2023/03/26 09:58:39;;;;;;;12.50;3.50;;;;;;;;;;5043776;28;20425;-80
2023/03/26 10:01:09;;;;;;;22.00;4.50;;;;;;;;;;5040771;28;20814;-81
2023/03/26 10:03:41;;;;;;;15.48;4.18;;;;;;;;;;5045955;28;20419;-80
2023/03/26 10:06:25;;;;;;;16.57;4.00;;;;;;;;;;5048263;28;20529;-80
2023/03/26 10:08:55;;;;;;;13.10;3.97;;;;;;;;;;5044031;28;20417;-80
2023/03/26 10:11:25;;;;;;;17.77;4.43;;;;;;;;;;5047787;28;20427;-80
2023/03/26 10:13:56;;;;;;;13.90;4.00;;;;;;;;;;5043425;28;20429;-80
2023/03/26 10:16:26;;;;;;;20.95;4.80;;;;;;;;;;5048207;28;20469;-80
2023/03/26 10:18:59;;;;;;;21.35;4.70;;;;;;;;;;5045641;28;20420;-80
2023/03/26 10:21:29;;;;;;;14.95;4.07;;;;;;;;;;5046317;28;20415;-80
2023/03/26 10:24:01;;;;;;;17.02;4.00;;;;;;;;;;5050444;28;20413;-80
2023/03/26 10:26:48;;;;;;;12.43;3.80;;;;;;;;;;5047741;28;20417;-80
2023/03/26 10:29:30;;;;;;;18.40;4.50;;;;;;;;;;5044199;28;20432;-80
2023/03/26 10:32:01;;;;;;;11.82;3.50;;;;;;;;;;5045209;28;20845;-79
2023/03/26 10:34:46;;;;;;;15.98;4.38;;;;;;;;;;5045875;28;20432;-78
2023/03/26 10:37:21;;;;;;;14.80;4.30;;;;;;;;;;5043690;28;20433;-79
2023/03/26 10:39:55;;;;;;;18.38;4.63;;;;;;;;;;5044715;28;20906;-79
2023/03/26 10:42:33;;;;;;;14.32;3.63;;;;;;;;;;5045663;28;20425;-79
2023/03/26 10:45:13;;;;;;;14.73;3.30;;;;;;;;;;5044337;28;20432;-78
2023/03/26 10:47:54;;;;;;;20.10;4.43;;;;;;;;;;5045790;28;20880;-79
2023/03/26 10:50:28;;;;;;;18.85;4.57;;;;;;;;;;5042737;28;20435;-79
2023/03/26 10:52:57;;;;;;;13.48;3.40;;;;;;;;;;5047463;28;20425;-79
2023/03/26 10:55:26;;;;;;;14.48;3.80;;;;;;;;;;5049390;28;20433;-79
2023/03/26 10:57:54;;;;;;;15.60;3.63;;;;;;;;;;5050908;28;20409;-80
2023/03/26 11:00:24;;;;;;;18.30;3.95;;;;;;;;;;5045482;28;20424;-78
2023/03/26 11:03:08;;;;;;;11.55;3.50;;;;;;;;;;5046442;28;20493;-79
2023/03/26 11:05:44;;;;;;;16.13;3.90;;;;;;;;;;5034875;28;20513;-79
2023/03/26 11:08:14;;;;;;;17.88;3.53;;;;;;;;;;5047978;28;20429;-78
2023/03/26 11:10:46;;;;;;;12.90;3.75;;;;;;;;;;5046417;28;20869;-79
2023/03/26 11:13:17;;;;;;;12.05;4.28;;;;;;;;;;5038887;28;20437;-78
2023/03/26 11:15:47;;;;;;;14.60;4.00;;;;;;;;;;5042318;28;20437;-78
2023/03/26 11:18:15;;;;;;;13.48;3.70;;;;;;;;;;5037448;28;20439;-79
2023/03/26 11:20:44;;;;;;;17.65;4.00;;;;;;;;;;5046218;28;20428;-78
2023/03/26 11:23:28;;;;;;;15.40;3.88;;;;;;;;;;5042793;28;20496;-79
2023/03/26 11:26:11;;;;;;;17.58;3.83;;;;;;;;;;5046902;28;20432;-78
2023/03/26 11:28:43;;;;;;;14.50;3.80;;;;;;;;;;5040141;28;20422;-79
2023/03/26 11:31:15;;;;;;;13.95;3.60;;;;;;;;;;5045439;28;20492;-79
2023/03/26 11:33:43;;;;;;;15.10;3.78;;;;;;;;;;5042933;28;20409;-79
2023/03/26 11:36:12;;;;;;;15.33;3.90;;;;;;;;;;5045818;28;20439;-78
2023/03/26 11:38:42;;;;;;;10.38;3.10;;;;;;;;;;5044908;28;20421;-79
2023/03/26 11:41:13;;;;;;;15.30;4.20;;;;;;;;;;5041349;28;20438;-80
2023/03/26 11:43:40;;;;;;;14.57;3.50;;;;;;;;;;5041476;28;20428;-80
2023/03/26 11:46:09;;;;;;;9.53;4.10;;;;;;;;;;5043977;28;20431;-81
2023/03/26 11:48:40;;;;;;;18.55;3.20;;;;;;;;;;5042834;28;20416;-81
2023/03/26 11:51:07;;;;;;;15.45;3.20;;;;;;;;;;5046603;28;20434;-80
2023/03/26 11:53:37;;;;;;;14.27;3.58;;;;;;;;;;5044340;28;20417;-81
2023/03/26 11:56:05;;;;;;;15.23;4.07;;;;;;;;;;5041590;28;20518;-78
2023/03/26 11:58:35;;;;;;;13.68;3.28;;;;;;;;;;5040983;28;20425;-79
2023/03/26 12:01:04;;;;;;;9.25;3.10;;;;;;;;;;5044127;28;20437;-78
2023/03/26 12:03:30;;;;;;;16.05;3.83;;;;;;;;;;5040895;28;20437;-80
2023/03/26 12:05:58;;;;;;;12.48;3.92;;;;;;;;;;5039919;28;20423;-79
2023/03/26 12:08:28;;;;;;;12.05;3.75;;;;;;;;;;5043869;28;20485;-78
2023/03/26 12:11:03;;;;;;;14.02;3.30;;;;;;;;;;5045945;28;20428;-78
2023/03/26 12:13:34;;;;;;;15.57;3.70;;;;;;;;;;5043712;28;20961;-79
2023/03/26 12:16:05;;;;;;;13.95;3.65;;;;;;;;;;5044681;28;20425;-79
2023/03/26 12:18:32;;;;;;;10.13;3.10;;;;;;;;;;5039519;28;20430;-80
2023/03/26 12:21:06;;;;;;;14.40;3.80;;;;;;;;;;5043341;28;20421;-78
2023/03/26 12:23:43;;;;;;;14.50;3.60;;;;;;;;;;5038258;28;20429;-80
2023/03/26 12:26:15;;;;;;;11.03;3.00;;;;;;;;;;5045662;28;20974;-79
2023/03/26 12:28:44;;;;;;;11.40;2.90;;;;;;;;;;5039812;28;20486;-80
2023/03/26 12:31:16;;;;;;;11.55;3.05;;;;;;;;;;5039397;28;20442;-80
2023/03/26 12:33:43;;;;;;;13.27;3.50;;;;;;;;;;5041450;28;20521;-79
2023/03/26 12:36:18;;;;;;;16.77;3.43;;;;;;;;;;5042317;28;20887;-81
2023/03/26 12:38:45;;;;;;;10.50;2.60;;;;;;;;;;5042267;28;21001;-79
2023/03/26 12:41:12;;;;;;;18.55;3.63;;;;;;;;;;5043091;28;20415;-79
2023/03/26 12:43:40;;;;;;;14.10;3.55;;;;;;;;;;5037302;28;20434;-79
2023/03/26 12:46:19;;;;;;;13.67;3.30;;;;;;;;;;5043396;28;20906;-79
2023/03/26 12:48:46;;;;;;;12.43;3.25;;;;;;;;;;5039787;28;20405;-81
2023/03/26 12:51:15;;;;;;;13.32;3.45;;;;;;;;;;5042606;28;20514;-80
2023/03/26 12:53:50;;;;;;;13.18;3.00;;;;;;;;;;5039743;28;20405;-79
2023/03/26 12:56:20;;;;;;;11.15;2.92;;;;;;;;;;5041026;28;20419;-79
2023/03/26 12:58:58;;;;;;;14.82;3.75;;;;;;;;;;5042648;28;20413;-81
2023/03/26 13:01:34;;;;;;;18.35;3.60;;;;;;;;;;5038311;28;20597;-80
2023/03/26 13:04:07;;;;;;;12.93;3.22;;;;;;;;;;5038981;28;20491;-81
2023/03/26 13:06:43;;;;;;;15.02;3.33;;;;;;;;;;5039411;28;20435;-80
2023/03/26 13:09:33;;;;;;;12.20;2.80;;;;;;;;;;5045427;28;20426;-80
2023/03/26 13:12:05;;;;;;;12.23;3.20;;;;;;;;;;5008457;28;20424;-80
2023/03/26 13:14:39;;;;;;;13.40;3.30;;;;;;;;;;5036497;28;20422;-80
2023/03/26 13:17:11;;;;;;;12.73;3.13;;;;;;;;;;5043685;28;20437;-80
2023/03/26 13:19:40;;;;;;;11.02;3.30;;;;;;;;;;5044464;28;20413;-80
2023/03/26 13:22:13;;;;;;;7.40;3.20;;;;;;;;;;5042546;28;20916;-80
2023/03/26 13:24:45;;;;;;;15.73;3.20;;;;;;;;;;5044372;28;20414;-80
2023/03/26 13:27:16;;;;;;;10.43;3.17;;;;;;;;;;5041420;28;20926;-80
2023/03/26 13:29:51;;;;;;;9.10;3.13;;;;;;;;;;5042894;28;20423;-80
2023/03/26 13:32:21;;;;;;;8.63;3.08;;;;;;;;;;5040814;28;20461;-80
2023/03/26 13:34:55;;;;;;;8.70;2.60;;;;;;;;;;5042413;28;20423;-80
2023/03/26 13:37:25;;;;;;;12.57;2.75;;;;;;;;;;5046620;28;20939;-80
2023/03/26 13:39:58;;;;;;;11.23;2.90;;;;;;;;;;5047474;28;20426;-80
2023/03/26 13:42:35;;;;;;;14.03;2.90;;;;;;;;;;5047082;28;20421;-80
2023/03/26 13:45:06;;;;;;;9.33;2.80;;;;;;;;;;5041787;28;20998;-80
2023/03/26 13:47:36;;;;;;;11.07;2.85;;;;;;;;;;5046950;28;20418;-80
2023/03/26 13:50:06;;;;;;;13.98;3.30;;;;;;;;;;5044081;28;20425;-80
2023/03/26 13:52:34;;;;;;;11.82;3.10;;;;;;;;;;5040877;28;20431;-80
2023/03/26 13:55:16;;;;;;;12.98;3.30;;;;;;;;;;5045998;28;20417;-80
2023/03/26 13:57:46;;;;;;;11.73;3.25;;;;;;;;;;5042245;28;20482;-80
2023/03/26 14:00:16;;;;;;;11.70;3.20;;;;;;;;;;5047414;28;20930;-80
2023/03/26 14:02:46;;;;;;;11.50;3.05;;;;;;;;;;5043965;28;20430;-80
2023/03/26 14:05:16;;;;;;;10.75;3.05;;;;;;;;;;5044144;28;20409;-80
2023/03/26 14:07:44;;;;;;;12.68;3.22;;;;;;;;;;5044544;28;20903;-80
2023/03/26 14:10:12;;;;;;;10.85;2.92;;;;;;;;;;5046262;28;20430;-80
2023/03/26 14:12:48;;;;;;;9.02;2.88;;;;;;;;;;5042868;28;20437;-80
2023/03/26 14:15:17;;;;;;;16.45;3.10;;;;;;;;;;5041910;28;20459;-80
2023/03/26 14:17:49;;;;;;;9.73;2.95;;;;;;;;;;5046392;28;20421;-80
2023/03/26 14:20:38;;;;;;;11.65;3.00;;;;;;;;;;5045591;28;20441;-80
2023/03/26 14:23:11;;;;;;;10.10;2.67;;;;;;;;;;5046104;28;20502;-80
2023/03/26 14:25:47;;;;;;;7.07;2.40;;;;;;;;;;5047221;28;20976;-80
2023/03/26 14:28:19;;;;;;;12.57;3.10;;;;;;;;;;5044104;28;20424;-81
2023/03/26 14:30:58;;;;;;;11.77;3.08;;;;;;;;;;5046096;28;20432;-80
2023/03/26 14:33:43;;;;;;;12.25;2.83;;;;;;;;;;5047647;28;20444;-80
2023/03/26 14:36:16;;;;;;;10.60;3.00;;;;;;;;;;5043792;28;20418;-80
2023/03/26 14:39:00;;;;;;;12.07;2.97;;;;;;;;;;5043140;28;20409;-80
2023/03/26 14:41:29;;;;;;;11.90;3.10;;;;;;;;;;5040794;28;20425;-80
2023/03/26 14:44:21;;;;;;;11.10;3.28;;;;;;;;;;5047289;28;20427;-80
2023/03/26 14:47:05;;;;;;;12.95;3.10;;;;;;;;;;5036208;28;20415;-80
2023/03/26 14:49:46;;;;;;;14.37;3.20;;;;;;;;;;5040956;28;20764;-80
2023/03/26 14:52:17;;;;;;;16.40;3.40;;;;;;;;;;5038638;28;20437;-80